createdAt,value
2019-02-24T00:00:30.976Z,-3.30
2019-02-24T00:03:36.514Z,-3.30
2019-02-24T00:06:40.124Z,-3.20
2019-02-24T00:09:43.725Z,-3.10
2019-02-24T00:12:47.215Z,-3.10
2019-02-24T00:15:50.684Z,-3.10
2019-02-24T00:18:54.084Z,-3.10
2019-02-24T00:21:57.628Z,-3.10
2019-02-24T00:25:01.089Z,-3.10
2019-02-24T00:28:07.092Z,-3.10
2019-02-24T00:31:09.836Z,-3.00
2019-02-24T00:34:13.341Z,-2.90
2019-02-24T00:37:16.880Z,-2.90
2019-02-24T00:40:20.535Z,-2.90
2019-02-24T00:43:24.080Z,-3.00
2019-02-24T00:46:27.558Z,-2.80
2019-02-24T00:49:30.951Z,-2.90
2019-02-24T00:52:34.389Z,-2.90
2019-02-24T00:55:37.848Z,-3.00
2019-02-24T00:58:41.288Z,-3.00
2019-02-24T01:02:10.768Z,-3.00
2019-02-24T01:05:14.172Z,-3.10
2019-02-24T01:08:17.564Z,-3.20
2019-02-24T01:11:20.964Z,-3.30
2019-02-24T01:14:24.472Z,-3.40
2019-02-24T01:17:27.908Z,-3.40
2019-02-24T01:20:31.390Z,-3.40
2019-02-24T01:23:34.776Z,-3.40
2019-02-24T01:26:38.275Z,-3.40
2019-02-24T01:29:41.672Z,-3.50
2019-02-24T01:32:45.067Z,-3.50
2019-02-24T01:35:48.476Z,-3.50
2019-02-24T01:38:51.770Z,-3.50
2019-02-24T01:41:55.207Z,-3.60
2019-02-24T01:44:58.691Z,-3.60
2019-02-24T01:48:02.112Z,-3.70
2019-02-24T01:51:05.567Z,-3.70
2019-02-24T01:54:08.976Z,-3.70
2019-02-24T01:57:12.472Z,-3.70
2019-02-24T02:00:16.076Z,-3.80
2019-02-24T02:03:19.584Z,-3.80
2019-02-24T02:06:23.103Z,-3.90
2019-02-24T02:09:27.512Z,-3.80
2019-02-24T02:12:30.911Z,-3.80
2019-02-24T02:15:34.308Z,-3.90
2019-02-24T02:18:37.807Z,-3.90
2019-02-24T02:21:41.210Z,-3.90
2019-02-24T02:24:46.313Z,-4.00
2019-02-24T02:27:49.720Z,-4.10
2019-02-24T02:30:53.144Z,-4.10
2019-02-24T02:33:56.592Z,-4.20
2019-02-24T02:37:00.053Z,-4.10
2019-02-24T02:40:03.588Z,-4.10
2019-02-24T02:43:08.153Z,-4.10
2019-02-24T02:46:11.580Z,-4.10
2019-02-24T02:49:15.016Z,-4.10
2019-02-24T02:52:18.584Z,-4.10
2019-02-24T02:55:21.987Z,-4.10
2019-02-24T02:58:25.524Z,-3.90
2019-02-24T03:01:28.988Z,-3.90
2019-02-24T03:04:32.533Z,-3.90
2019-02-24T03:07:42.956Z,-3.80
2019-02-24T03:10:46.461Z,-3.80
2019-02-24T03:13:49.999Z,-3.70
2019-02-24T03:16:53.565Z,-3.70
2019-02-24T03:19:57.004Z,-3.60
2019-02-24T03:23:00.616Z,-3.60
2019-02-24T03:26:04.071Z,-3.60
2019-02-24T03:29:07.616Z,-3.70
2019-02-24T03:32:11.181Z,-3.70
2019-02-24T03:35:14.748Z,-3.60
2019-02-24T03:38:18.329Z,-3.60
2019-02-24T03:41:21.892Z,-3.60
2019-02-24T03:44:25.353Z,-3.60
2019-02-24T03:47:28.799Z,-3.60
2019-02-24T03:50:31.998Z,-3.60
2019-02-24T03:53:35.528Z,-3.60
2019-02-24T03:56:39.101Z,-3.60
2019-02-24T03:59:42.532Z,-3.60
2019-02-24T04:02:46.001Z,-3.60
2019-02-24T04:05:49.401Z,-3.60
2019-02-24T04:08:52.840Z,-3.60
2019-02-24T04:11:56.399Z,-3.60
2019-02-24T04:14:59.940Z,-3.50
2019-02-24T04:18:03.413Z,-3.50
2019-02-24T04:21:06.904Z,-3.50
2019-02-24T04:24:10.348Z,-3.50
2019-02-24T04:27:13.813Z,-3.60
2019-02-24T04:30:17.249Z,-3.60
2019-02-24T04:33:20.714Z,-3.60
2019-02-24T04:36:24.121Z,-3.60
2019-02-24T04:39:27.552Z,-3.60
2019-02-24T04:42:31.011Z,-3.50
2019-02-24T04:45:34.416Z,-3.50
2019-02-24T04:48:38.224Z,-3.20
2019-02-24T04:51:41.627Z,-3.10
2019-02-24T04:54:46.092Z,-3.20
2019-02-24T04:57:49.565Z,-3.30
2019-02-24T05:00:52.949Z,-3.30
2019-02-24T05:03:56.452Z,-3.20
2019-02-24T05:06:59.851Z,-3.20
2019-02-24T05:10:03.301Z,-3.20
2019-02-24T05:13:06.755Z,-3.20
2019-02-24T05:16:10.156Z,-3.20
2019-02-24T05:19:13.556Z,-3.20
2019-02-24T05:22:16.952Z,-3.20
2019-02-24T05:25:20.460Z,-3.20
2019-02-24T05:28:23.961Z,-3.20
2019-02-24T05:31:27.364Z,-3.10
2019-02-24T05:34:30.900Z,-3.00
2019-02-24T05:37:34.405Z,-2.90
2019-02-24T05:40:37.865Z,-2.90
2019-02-24T05:43:41.264Z,-2.90
2019-02-24T05:46:44.765Z,-2.90
2019-02-24T05:49:48.272Z,-2.90
2019-02-24T05:52:51.711Z,-2.80
2019-02-24T05:55:55.276Z,-2.70
2019-02-24T05:58:58.788Z,-2.70
2019-02-24T06:02:02.280Z,-2.60
2019-02-24T06:05:05.737Z,-2.60
2019-02-24T06:08:09.136Z,-2.50
2019-02-24T06:11:12.629Z,-2.50
2019-02-24T06:14:16.037Z,-2.40
2019-02-24T06:17:19.436Z,-2.30
2019-02-24T06:20:22.880Z,-2.20
2019-02-24T06:23:26.375Z,-2.30
2019-02-24T06:26:30.298Z,-2.30
2019-02-24T06:29:33.996Z,-2.20
2019-02-24T06:32:37.456Z,-2.20
2019-02-24T06:35:40.900Z,-2.20
2019-02-24T06:38:44.504Z,-2.10
2019-02-24T06:41:47.964Z,-2.10
2019-02-24T06:44:51.596Z,-2.00
2019-02-24T06:47:55.074Z,-2.00
2019-02-24T06:51:01.433Z,-1.90
2019-02-24T06:54:04.884Z,-1.90
2019-02-24T06:57:08.380Z,-1.70
2019-02-24T07:00:14.411Z,-1.70
2019-02-24T07:03:17.132Z,-1.60
2019-02-24T07:06:20.732Z,-1.60
2019-02-24T07:09:24.238Z,-1.50
2019-02-24T07:12:27.744Z,-1.40
2019-02-24T07:15:31.236Z,-1.40
2019-02-24T07:18:35.052Z,-1.30
2019-02-24T07:21:38.651Z,-1.20
2019-02-24T07:24:42.116Z,-1.10
2019-02-24T07:27:45.655Z,-0.90
2019-02-24T07:30:49.119Z,-0.60
2019-02-24T07:33:52.548Z,-0.50
2019-02-24T07:36:55.964Z,-0.50
2019-02-24T07:39:59.524Z,-0.40
2019-02-24T07:43:02.963Z,-0.20
2019-02-24T07:46:06.428Z,-0.10
2019-02-24T07:49:09.927Z,-0.10
2019-02-24T07:52:13.368Z,-0.10
2019-02-24T07:55:16.832Z,0.00
2019-02-24T07:58:21.198Z,0.10
2019-02-24T08:01:24.655Z,0.20
2019-02-24T08:04:27.958Z,0.40
2019-02-24T08:07:31.392Z,0.60
2019-02-24T08:10:34.860Z,0.60
2019-02-24T08:13:38.296Z,0.60
2019-02-24T08:16:41.756Z,0.60
2019-02-24T08:19:45.160Z,0.70
2019-02-24T08:22:48.701Z,0.80
2019-02-24T08:25:52.160Z,0.80
2019-02-24T08:28:55.662Z,1.00
2019-02-24T08:32:00.087Z,1.10
2019-02-24T08:35:03.388Z,1.10
2019-02-24T08:38:06.928Z,1.10
2019-02-24T08:41:10.399Z,1.20
2019-02-24T08:44:13.788Z,1.30
2019-02-24T08:47:17.292Z,1.50
2019-02-24T08:50:20.696Z,1.60
2019-02-24T08:53:24.128Z,1.80
2019-02-24T08:56:27.592Z,2.00
2019-02-24T08:59:31.044Z,2.10
2019-02-24T09:02:34.498Z,2.40
2019-02-24T09:05:37.900Z,2.80
2019-02-24T09:08:41.452Z,3.10
2019-02-24T09:11:44.957Z,3.30
2019-02-24T09:14:48.407Z,3.50
2019-02-24T09:17:51.806Z,3.60
2019-02-24T09:20:55.243Z,3.80
2019-02-24T09:23:58.812Z,3.90
2019-02-24T09:27:02.414Z,4.00
2019-02-24T09:30:06.120Z,4.10
2019-02-24T09:33:09.560Z,4.40
2019-02-24T09:36:13.020Z,4.60
2019-02-24T09:39:16.627Z,4.60
2019-02-24T09:42:20.073Z,4.70
2019-02-24T09:45:23.636Z,4.80
2019-02-24T09:48:27.138Z,5.00
2019-02-24T09:51:30.636Z,5.10
2019-02-24T09:54:34.041Z,5.30
2019-02-24T09:57:37.436Z,5.50
2019-02-24T10:00:40.839Z,5.50
2019-02-24T10:03:44.140Z,5.60
2019-02-24T10:06:47.640Z,5.70
2019-02-24T10:09:51.043Z,6.00
2019-02-24T10:12:54.480Z,6.30
2019-02-24T10:15:57.940Z,6.70
2019-02-24T10:19:01.579Z,7.20
2019-02-24T10:22:05.084Z,7.50
2019-02-24T10:25:08.654Z,7.90
2019-02-24T10:28:12.301Z,8.70
2019-02-24T10:31:19.848Z,9.40
2019-02-24T10:34:21.148Z,10.60
2019-02-24T10:37:25.563Z,11.70
2019-02-24T10:40:29.027Z,12.20
2019-02-24T10:43:32.496Z,13.50
2019-02-24T10:46:35.933Z,14.20
2019-02-24T10:49:39.474Z,15.40
2019-02-24T10:52:43.084Z,15.90
2019-02-24T10:55:46.643Z,16.30
2019-02-24T10:58:50.085Z,16.90
2019-02-24T11:01:53.543Z,17.30
2019-02-24T11:04:57.048Z,18.10
2019-02-24T11:08:00.484Z,18.20
2019-02-24T11:11:03.955Z,17.80
2019-02-24T11:14:07.924Z,17.80
2019-02-24T11:17:11.390Z,16.90
2019-02-24T11:20:15.075Z,16.40
2019-02-24T11:23:18.515Z,17.10
2019-02-24T11:26:22.180Z,17.70
2019-02-24T11:29:25.712Z,18.80
2019-02-24T11:32:29.289Z,19.30
2019-02-24T11:35:32.684Z,19.80
2019-02-24T11:38:36.227Z,19.50
2019-02-24T11:41:39.788Z,20.00
2019-02-24T11:44:43.328Z,19.90
2019-02-24T11:47:46.797Z,20.80
2019-02-24T11:50:50.302Z,22.10
2019-02-24T11:53:53.740Z,22.20
2019-02-24T11:56:57.300Z,22.10
2019-02-24T12:00:00.813Z,21.10
2019-02-24T12:03:04.213Z,20.50
2019-02-24T12:06:07.661Z,18.50
2019-02-24T12:09:11.200Z,18.40
2019-02-24T12:12:14.665Z,18.90
2019-02-24T12:15:18.071Z,18.90
2019-02-24T12:18:21.604Z,18.60
2019-02-24T12:21:25.112Z,19.20
2019-02-24T12:24:28.818Z,20.30
2019-02-24T12:27:32.288Z,21.10
2019-02-24T12:30:35.680Z,20.10
2019-02-24T12:33:39.219Z,21.00
2019-02-24T12:36:42.789Z,19.40
2019-02-24T12:39:46.188Z,18.30
2019-02-24T12:42:49.590Z,18.30
2019-02-24T12:45:52.984Z,18.10
2019-02-24T12:48:56.528Z,18.30
2019-02-24T12:51:59.989Z,18.90
2019-02-24T12:55:03.392Z,20.80
2019-02-24T12:58:07.520Z,19.30
2019-02-24T13:01:11.212Z,20.10
2019-02-24T13:04:14.775Z,21.20
2019-02-24T13:07:18.216Z,20.80
2019-02-24T13:10:21.617Z,19.40
2019-02-24T13:13:25.020Z,19.00
2019-02-24T13:16:28.525Z,20.90
2019-02-24T13:19:31.956Z,22.00
2019-02-24T13:22:35.526Z,22.70
2019-02-24T13:25:39.036Z,22.60
2019-02-24T13:28:50.171Z,21.00
2019-02-24T13:31:47.880Z,21.40
2019-02-24T13:34:51.380Z,19.90
2019-02-24T13:37:54.976Z,21.10
2019-02-24T13:40:58.797Z,22.70
2019-02-24T13:44:02.905Z,23.80
2019-02-24T13:47:08.218Z,22.50
2019-02-24T13:50:17.412Z,20.70
2019-02-24T13:53:21.656Z,22.20
2019-02-24T13:56:28.498Z,23.80
2019-02-24T13:59:32.097Z,24.30
2019-02-24T14:02:36.386Z,24.60
2019-02-24T14:05:41.796Z,22.10
2019-02-24T14:08:45.260Z,19.00
2019-02-24T14:11:49.101Z,16.80
2019-02-24T14:14:52.612Z,15.10
2019-02-24T14:17:56.078Z,15.30
2019-02-24T14:20:59.624Z,14.90
2019-02-24T14:24:03.284Z,15.10
2019-02-24T14:27:06.833Z,15.10
2019-02-24T14:30:11.764Z,14.40
2019-02-24T14:33:15.944Z,14.20
2019-02-24T14:36:19.494Z,14.40
2019-02-24T14:39:23.149Z,15.60
2019-02-24T14:42:26.657Z,16.80
2019-02-24T14:45:30.200Z,18.40
2019-02-24T14:48:33.660Z,19.50
2019-02-24T14:51:37.220Z,19.90
2019-02-24T14:54:40.768Z,20.10
2019-02-24T15:12:25.569Z,20.70
2019-02-24T15:15:32.974Z,22.40
2019-02-24T15:18:34.008Z,21.20
2019-02-24T15:21:37.572Z,19.80
2019-02-24T15:24:41.012Z,19.00
2019-02-24T15:27:44.521Z,19.10
2019-02-24T15:30:48.179Z,18.60
2019-02-24T15:33:51.735Z,17.90
2019-02-24T15:36:55.291Z,17.20
2019-02-24T15:39:58.727Z,16.10
2019-02-24T15:43:02.232Z,15.80
2019-02-24T15:46:05.696Z,15.30
2019-02-24T15:49:09.244Z,13.90
2019-02-24T15:52:12.709Z,13.20
2019-02-24T15:55:16.248Z,12.90
2019-02-24T15:58:19.848Z,12.50
2019-02-24T16:01:23.412Z,12.30
2019-02-24T16:04:26.862Z,11.90
2019-02-24T16:07:30.723Z,11.80
2019-02-24T16:10:34.227Z,11.70
2019-02-24T16:13:37.775Z,11.50
2019-02-24T16:16:41.336Z,11.40
2019-02-24T16:19:44.875Z,11.30
2019-02-24T16:22:48.336Z,11.00
2019-02-24T16:25:51.835Z,10.60
2019-02-24T16:28:55.392Z,10.30
2019-02-24T16:31:58.843Z,9.90
2019-02-24T16:35:02.283Z,9.60
2019-02-24T16:38:05.961Z,9.50
2019-02-24T16:41:09.456Z,9.30
2019-02-24T16:44:12.996Z,9.20
2019-02-24T16:47:16.672Z,9.00
2019-02-24T16:50:20.267Z,8.70
2019-02-24T16:53:23.904Z,8.40
2019-02-24T16:56:27.376Z,8.30
2019-02-24T16:59:31.004Z,8.10
2019-02-24T17:02:36.278Z,8.00
2019-02-24T17:05:40.444Z,7.80
2019-02-24T17:08:52.056Z,7.70
2019-02-24T17:11:50.212Z,7.50
2019-02-24T17:14:54.116Z,7.40
2019-02-24T17:17:58.224Z,7.10
2019-02-24T17:21:02.296Z,6.80
2019-02-24T17:24:06.321Z,6.60
2019-02-24T17:27:10.303Z,6.50
2019-02-24T17:30:14.656Z,6.40
2019-02-24T17:33:18.726Z,6.10
2019-02-24T17:36:22.229Z,5.90
2019-02-24T17:39:25.775Z,5.70
2019-02-24T17:42:29.523Z,5.60
2019-02-24T17:45:33.744Z,5.50
2019-02-24T17:48:37.490Z,5.40
2019-02-24T17:51:41.582Z,5.40
2019-02-24T17:54:45.340Z,5.20
2019-02-24T17:57:49.167Z,5.00
2019-02-24T18:00:59.460Z,4.80
2019-02-24T18:04:03.580Z,4.60
2019-02-24T18:07:07.058Z,4.50
2019-02-24T18:10:10.636Z,4.40
2019-02-24T18:13:15.471Z,4.30
2019-02-24T18:16:19.180Z,4.20
2019-02-24T18:19:23.091Z,4.10
2019-02-24T18:22:27.168Z,3.90
2019-02-24T18:25:31.434Z,3.80
2019-02-24T18:28:35.684Z,3.70
2019-02-24T18:31:39.926Z,3.60
2019-02-24T18:34:44.433Z,3.50
2019-02-24T18:37:48.930Z,3.40
2019-02-24T18:41:01.072Z,3.30
2019-02-24T18:44:05.504Z,3.20
2019-02-24T18:47:10.074Z,3.20
2019-02-24T18:50:16.240Z,3.10
2019-02-24T18:53:20.489Z,2.90
2019-02-24T18:56:24.710Z,2.80
2019-02-24T18:59:29.300Z,2.70
2019-02-24T19:02:32.803Z,2.60
2019-02-24T19:05:37.866Z,2.50
2019-02-24T19:08:41.992Z,2.50
2019-02-24T19:11:46.065Z,2.50
2019-02-24T19:14:50.889Z,2.50
2019-02-24T19:17:55.007Z,2.40
2019-02-24T19:20:59.999Z,2.40
2019-02-24T19:24:04.413Z,2.30
2019-02-24T19:27:08.664Z,2.20
2019-02-24T19:30:13.671Z,2.10
2019-02-24T19:33:17.797Z,2.10
2019-02-24T19:36:21.712Z,2.10
2019-02-24T19:39:25.624Z,1.80
2019-02-24T19:42:31.913Z,1.80
2019-02-24T19:45:36.308Z,1.90
2019-02-24T19:48:42.214Z,1.90
2019-02-24T19:51:46.436Z,1.80
2019-02-24T19:54:50.781Z,1.90
2019-02-24T19:57:54.279Z,1.90
2019-02-24T20:00:58.508Z,1.80
2019-02-24T20:04:02.403Z,1.60
2019-02-24T20:07:06.873Z,1.50
2019-02-24T20:10:10.943Z,1.30
2019-02-24T20:13:15.137Z,1.30
2019-02-24T20:16:19.823Z,1.20
2019-02-24T20:19:23.678Z,1.20
2019-02-24T20:22:27.112Z,1.10
2019-02-24T20:25:31.395Z,1.10
2019-02-24T20:28:35.456Z,1.00
2019-02-24T20:31:41.403Z,1.00
2019-02-24T20:34:46.168Z,0.90
2019-02-24T20:37:50.216Z,0.80
2019-02-24T20:40:55.093Z,0.80
2019-02-24T20:43:59.448Z,0.80
2019-02-24T20:47:03.737Z,0.70
2019-02-24T20:50:09.142Z,0.70
2019-02-24T20:53:14.067Z,0.70
2019-02-24T20:56:18.628Z,0.60
2019-02-24T20:59:23.452Z,0.50
2019-02-24T21:02:27.627Z,0.50
2019-02-24T21:05:32.378Z,0.40
2019-02-24T21:08:36.663Z,0.20
2019-02-24T21:11:41.180Z,0.10
2019-02-24T21:14:45.372Z,0.10
2019-02-24T21:17:49.660Z,0.10
2019-02-24T21:20:54.174Z,0.00
2019-02-24T21:23:58.504Z,0.00
2019-02-24T21:27:03.568Z,0.00
2019-02-24T21:30:07.999Z,0.00
2019-02-24T21:33:12.516Z,0.00
2019-02-24T21:36:17.477Z,0.00
2019-02-24T21:39:20.997Z,-0.10
2019-02-24T21:42:25.163Z,-0.20
2019-02-24T21:45:29.071Z,-0.30
2019-02-24T21:48:33.212Z,-0.40
2019-02-24T21:51:37.064Z,-0.40
2019-02-24T21:54:41.493Z,-0.40
2019-02-24T21:57:45.148Z,-0.40
2019-02-24T22:00:50.321Z,-0.50
2019-02-24T22:03:53.924Z,-0.50
2019-02-24T22:06:57.552Z,-0.50
2019-02-24T22:10:01.569Z,-0.60
2019-02-24T22:13:05.354Z,-0.50
2019-02-24T22:16:08.997Z,-0.70
2019-02-24T22:19:14.520Z,-0.70
2019-02-24T22:22:18.559Z,-0.70
2019-02-24T22:25:22.532Z,-0.70
2019-02-24T22:28:26.743Z,-0.70
2019-02-24T22:31:30.956Z,-0.70
2019-02-24T22:34:35.052Z,-0.70
2019-02-24T22:37:39.214Z,-0.80
2019-02-24T22:40:42.905Z,-0.90
2019-02-24T22:43:46.842Z,-1.00
2019-02-24T22:46:50.716Z,-1.10
2019-02-24T22:49:54.692Z,-1.10
2019-02-24T22:52:58.326Z,-1.10
2019-02-24T22:56:01.825Z,-1.10
2019-02-24T22:59:05.363Z,-1.10
2019-02-24T23:02:09.314Z,-1.10
2019-02-24T23:05:14.843Z,-1.20
2019-02-24T23:08:18.264Z,-1.30
2019-02-24T23:11:21.768Z,-1.40
2019-02-24T23:14:25.374Z,-1.50
2019-02-24T23:17:28.867Z,-1.50
2019-02-24T23:20:32.435Z,-1.50
2019-02-24T23:23:35.940Z,-1.50
2019-02-24T23:26:39.383Z,-1.50
2019-02-24T23:29:42.843Z,-1.50
2019-02-24T23:32:46.483Z,-1.50
2019-02-24T23:35:49.949Z,-1.50
2019-02-24T23:38:53.358Z,-1.60
2019-02-24T23:41:56.895Z,-1.60
2019-02-24T23:45:09.500Z,-1.70
2019-02-24T23:48:05.740Z,-1.80
2019-02-24T23:51:09.200Z,-1.80
2019-02-24T23:54:12.601Z,-1.80
2019-02-24T23:57:16.036Z,-1.80
